createdAt,value
2023-05-15T00:02:57.801Z,99791.63
2023-05-15T00:07:59.425Z,99792.97
2023-05-15T00:13:00.829Z,99776.53
2023-05-15T00:18:02.221Z,99789.28
2023-05-15T00:23:03.610Z,99773.84
2023-05-15T00:28:04.931Z,99774.53
2023-05-15T00:33:06.892Z,99787.28
2023-05-15T00:38:08.268Z,99782.22
2023-05-15T00:43:11.929Z,99768.63
2023-05-15T00:48:13.889Z,99780.53
2023-05-15T00:53:15.528Z,99765.63
2023-05-15T00:58:18.223Z,99765.63
2023-05-15T01:03:20.156Z,99753.03
2023-05-15T01:08:38.840Z,99755.88
2023-05-15T01:13:40.596Z,99769.13
2023-05-15T01:18:41.990Z,99760.75
2023-05-15T01:24:07.134Z,99773.13
2023-05-15T01:29:12.487Z,99768.09
2023-05-15T01:34:19.557Z,99753.84
2023-05-15T01:39:26.077Z,99757.53
2023-05-15T01:44:34.067Z,99768.94
2023-05-15T01:49:36.552Z,99761.22
2023-05-15T01:54:40.006Z,99745.94
2023-05-15T01:59:42.614Z,99764.53
2023-05-15T02:04:45.257Z,99768.03
2023-05-15T02:09:47.193Z,99775.72
2023-05-15T02:14:50.256Z,99740.09
2023-05-15T02:19:51.642Z,99757.53
2023-05-15T02:24:53.275Z,99747.78
2023-05-15T02:30:04.265Z,99772.22
2023-05-15T02:35:21.729Z,99764.50
2023-05-15T02:40:24.904Z,99763.69
2023-05-15T02:45:26.640Z,99771.03
2023-05-15T02:50:28.450Z,99756.88
2023-05-15T02:55:30.133Z,99763.44
2023-05-15T03:00:31.625Z,99756.88
2023-05-15T03:05:32.975Z,99760.06
2023-05-15T03:10:34.502Z,99761.91
2023-05-15T03:15:35.785Z,99751.03
2023-05-15T03:20:37.124Z,99757.38
2023-05-15T03:25:38.524Z,99726.03
2023-05-15T03:30:39.858Z,99739.28
2023-05-15T03:35:41.179Z,99747.28
2023-05-15T03:40:42.906Z,99739.59
2023-05-15T03:45:44.205Z,99755.00
2023-05-15T03:50:46.921Z,99761.03
2023-05-15T03:55:48.335Z,99755.69
2023-05-15T04:00:49.683Z,99749.81
2023-05-15T04:05:52.246Z,99743.75
2023-05-15T04:10:54.722Z,99753.47
2023-05-15T04:15:56.224Z,99752.59
2023-05-15T04:20:57.641Z,99746.72
2023-05-15T04:25:59.387Z,99755.41
2023-05-15T04:31:01.260Z,99761.00
2023-05-15T04:36:03.131Z,99723.69
2023-05-15T04:41:04.417Z,99773.47
2023-05-15T04:46:05.835Z,99762.88
2023-05-15T04:51:07.606Z,99756.53
2023-05-15T04:56:08.947Z,99746.47
2023-05-15T05:01:10.263Z,99757.19
2023-05-15T05:06:11.584Z,99752.72
2023-05-15T05:11:13.087Z,99775.06
2023-05-15T05:16:14.610Z,99763.84
2023-05-15T05:21:16.001Z,99772.28
2023-05-15T05:26:17.381Z,99759.19
2023-05-15T05:31:18.803Z,99774.66
2023-05-15T05:36:20.202Z,99787.94
2023-05-15T05:41:21.660Z,99766.00
2023-05-15T05:46:23.274Z,99784.47
2023-05-15T05:51:24.584Z,99785.72
2023-05-15T05:56:26.531Z,99775.34
2023-05-15T06:01:28.016Z,99783.75
2023-05-15T06:06:29.882Z,99767.03
2023-05-15T06:11:31.526Z,99771.44
2023-05-15T06:16:32.925Z,99759.72
2023-05-15T06:21:34.263Z,99772.66
2023-05-15T06:26:36.308Z,99745.00
2023-05-15T06:31:37.661Z,99721.19
2023-05-15T06:36:39.229Z,99776.38
2023-05-15T06:41:40.556Z,99762.78
2023-05-15T06:46:41.841Z,99761.78
2023-05-15T06:51:43.372Z,99748.16
2023-05-15T06:56:44.786Z,99750.31
2023-05-15T07:01:46.127Z,99777.47
2023-05-15T07:06:47.502Z,99753.34
2023-05-15T07:11:48.779Z,99765.53
2023-05-15T07:16:50.167Z,99748.59
2023-05-15T07:21:51.827Z,99754.41
2023-05-15T07:26:58.670Z,99751.78
2023-05-15T07:32:01.228Z,99764.53
2023-05-15T07:37:02.663Z,99744.06
2023-05-15T07:42:04.355Z,99753.47
2023-05-15T07:47:05.736Z,99761.59
2023-05-15T07:52:07.356Z,99753.47
2023-05-15T07:57:09.404Z,99761.50
2023-05-15T08:02:10.783Z,99734.06
2023-05-15T08:07:13.634Z,99747.06
2023-05-15T08:12:21.030Z,99709.16
2023-05-15T08:17:24.316Z,99735.34
2023-05-15T08:22:25.662Z,99718.59
2023-05-15T08:27:27.084Z,99728.31
2023-05-15T08:32:28.452Z,99731.81
2023-05-15T08:37:29.930Z,99722.47
2023-05-15T08:42:51.103Z,99730.94
2023-05-15T08:47:53.709Z,99715.72
2023-05-15T08:52:58.314Z,99724.09
2023-05-15T08:58:00.859Z,99721.41
2023-05-15T09:03:02.291Z,99705.41
2023-05-15T09:08:05.428Z,99720.88
2023-05-15T09:13:07.958Z,99718.16
2023-05-15T09:18:09.891Z,99696.28
2023-05-15T09:23:26.217Z,99690.38
2023-05-15T09:28:33.272Z,99692.91
2023-05-15T09:33:37.291Z,99699.75
2023-05-15T09:38:43.368Z,99690.50
2023-05-15T09:43:44.864Z,99680.59
2023-05-15T09:48:46.527Z,99666.25
2023-05-15T09:53:55.239Z,99681.84
2023-05-15T09:58:59.181Z,99677.25
2023-05-15T10:04:03.421Z,99673.50
2023-05-15T10:09:05.831Z,99674.94
2023-05-15T10:14:09.333Z,99672.94
2023-05-15T10:19:11.291Z,99666.81
2023-05-15T10:24:14.048Z,99661.88
2023-05-15T10:29:21.265Z,99647.09
2023-05-15T10:34:23.830Z,99650.00
2023-05-15T10:39:27.356Z,99660.19
2023-05-15T10:44:28.619Z,99653.03
2023-05-15T10:49:30.091Z,99640.91
2023-05-15T10:54:31.660Z,99627.88
2023-05-15T10:59:34.756Z,99606.72
2023-05-15T11:04:36.400Z,99616.44
2023-05-15T11:09:38.643Z,99627.50
2023-05-15T11:14:44.145Z,99616.22
2023-05-15T11:19:51.713Z,99618.88
2023-05-15T11:25:12.325Z,99611.16
2023-05-15T11:30:22.735Z,99615.34
2023-05-15T11:35:36.911Z,99597.47
2023-05-15T11:40:52.883Z,99594.00
2023-05-15T11:45:57.595Z,99604.75
2023-05-15T11:51:00.877Z,99604.81
2023-05-15T11:56:02.309Z,99596.47
2023-05-15T12:01:03.745Z,99606.50
2023-05-15T12:06:05.284Z,99606.69
2023-05-15T12:11:06.767Z,99603.56
2023-05-15T12:16:08.161Z,99613.16
2023-05-15T12:21:10.757Z,99607.34
2023-05-15T12:26:12.217Z,99626.25
2023-05-15T12:31:13.662Z,99627.09
2023-05-15T12:36:15.652Z,99607.28
2023-05-15T12:41:17.027Z,99608.50
2023-05-15T12:46:23.313Z,99618.91
2023-05-15T12:51:25.011Z,99607.19
2023-05-15T12:56:29.215Z,99614.69
2023-05-15T13:01:30.828Z,99618.84
2023-05-15T13:06:44.876Z,99619.69
2023-05-15T13:11:47.444Z,99618.84
2023-05-15T13:16:48.902Z,99619.94
2023-05-15T13:21:50.829Z,99611.00
2023-05-15T13:26:52.822Z,99626.00
2023-05-15T13:31:54.130Z,99634.78
2023-05-15T13:36:55.471Z,99643.09
2023-05-15T13:41:58.309Z,99621.59
2023-05-15T13:47:04.207Z,99626.16
2023-05-15T13:52:05.879Z,99646.22
2023-05-15T13:57:07.592Z,99658.06
2023-05-15T14:02:08.952Z,99678.59
2023-05-15T14:07:10.574Z,99675.94
2023-05-15T14:12:11.844Z,99663.31
2023-05-15T14:17:13.583Z,99670.56
2023-05-15T14:22:15.467Z,99657.19
2023-05-15T14:27:19.000Z,99655.56
2023-05-15T14:32:20.510Z,99664.81
2023-05-15T14:37:21.845Z,99649.16
2023-05-15T14:42:23.236Z,99671.44
2023-05-15T14:47:25.258Z,99688.38
2023-05-15T14:52:26.604Z,99669.19
2023-05-15T14:57:27.950Z,99683.03
2023-05-15T15:02:29.427Z,99655.56
2023-05-15T15:07:30.869Z,99673.72
2023-05-15T15:12:33.256Z,99665.50
2023-05-15T15:17:34.614Z,99668.56
2023-05-15T15:22:36.088Z,99674.88
2023-05-15T15:27:37.930Z,99664.09
2023-05-15T15:32:40.102Z,99659.91
2023-05-15T15:37:41.571Z,99650.00
2023-05-15T15:42:42.898Z,99663.91
2023-05-15T15:47:44.791Z,99646.44
2023-05-15T15:52:46.730Z,99665.69
2023-05-15T15:57:48.098Z,99647.47
2023-05-15T16:02:49.469Z,99648.28
2023-05-15T16:07:50.929Z,99673.00
2023-05-15T16:12:52.281Z,99658.78
2023-05-15T16:17:54.721Z,99677.16
2023-05-15T16:22:56.413Z,99671.44
2023-05-15T16:27:57.713Z,99676.34
2023-05-15T16:32:59.420Z,99675.41
2023-05-15T16:38:00.777Z,99658.63
2023-05-15T16:43:02.101Z,99675.81
2023-05-15T16:48:03.795Z,99687.44
2023-05-15T16:53:05.428Z,99660.59
2023-05-15T16:58:06.801Z,99681.31
2023-05-15T17:03:08.472Z,99667.53
2023-05-15T17:08:09.894Z,99687.81
2023-05-15T17:13:11.336Z,99689.69
2023-05-15T17:18:12.683Z,99693.00
2023-05-15T17:23:14.042Z,99690.50
2023-05-15T17:28:15.550Z,99686.25
2023-05-15T17:33:16.961Z,99674.91
2023-05-15T17:38:18.289Z,99692.94
2023-05-15T17:43:19.565Z,99675.56
2023-05-15T17:48:20.879Z,99698.97
2023-05-15T17:53:24.103Z,99705.38
2023-05-15T17:58:25.484Z,99707.22
2023-05-15T18:03:26.917Z,99715.22
2023-05-15T18:08:28.424Z,99711.22
2023-05-15T18:13:29.761Z,99716.59
2023-05-15T18:18:31.418Z,99705.59
2023-05-15T18:23:33.224Z,99710.03
2023-05-15T18:28:34.513Z,99714.59
2023-05-15T18:33:35.959Z,99743.28
2023-05-15T18:38:37.421Z,99732.03
2023-05-15T18:43:38.738Z,99738.78
2023-05-15T18:48:40.240Z,99754.75
2023-05-15T18:53:41.616Z,99747.88
2023-05-15T18:58:43.348Z,99764.91
2023-05-15T19:03:44.756Z,99755.06
2023-05-15T19:08:48.174Z,99768.81
2023-05-15T19:13:50.165Z,99779.22
2023-05-15T19:18:51.656Z,99787.66
2023-05-15T19:23:53.039Z,99769.97
2023-05-15T19:28:54.874Z,99795.75
2023-05-15T19:33:56.223Z,99777.66
2023-05-15T19:38:57.811Z,99800.16
2023-05-15T19:43:59.141Z,99790.13
2023-05-15T19:49:01.011Z,99817.59
2023-05-15T19:54:02.419Z,99820.34
2023-05-15T19:59:03.838Z,99811.50
2023-05-15T20:04:05.479Z,99843.19
2023-05-15T20:09:06.900Z,99843.56
2023-05-15T20:14:08.250Z,99850.28
2023-05-15T20:19:10.930Z,99848.00
2023-05-15T20:24:12.343Z,99843.47
2023-05-15T20:29:13.650Z,99854.88
2023-05-15T20:34:15.862Z,99844.72
2023-05-15T20:39:17.398Z,99840.16
2023-05-15T20:44:18.760Z,99834.63
2023-05-15T20:49:20.515Z,99843.41
2023-05-15T20:54:22.082Z,99847.91
2023-05-15T20:59:23.607Z,99857.19
2023-05-15T21:04:25.013Z,99845.47
2023-05-15T21:09:26.352Z,99858.91
2023-05-15T21:14:27.834Z,99852.84
2023-05-15T21:19:29.161Z,99862.28
2023-05-15T21:24:30.515Z,99856.88
2023-05-15T21:29:32.010Z,99849.50
2023-05-15T21:34:33.435Z,99836.28
2023-05-15T21:39:34.767Z,99874.72
2023-05-15T21:44:36.103Z,99869.53
2023-05-15T21:49:37.447Z,99878.78
2023-05-15T21:54:38.753Z,99861.34
2023-05-15T21:59:40.110Z,99863.34
2023-05-15T22:04:41.490Z,99854.63
2023-05-15T22:09:43.401Z,99878.97
2023-05-15T22:14:57.448Z,99865.91
2023-05-15T22:20:07.691Z,99869.81
2023-05-15T22:25:10.008Z,99869.13
2023-05-15T22:30:11.830Z,99866.47
2023-05-15T22:35:13.292Z,99855.84
2023-05-15T22:40:15.011Z,99877.69
2023-05-15T22:45:18.305Z,99878.81
2023-05-15T22:50:20.140Z,99867.41
2023-05-15T22:55:21.893Z,99864.56
2023-05-15T23:00:23.408Z,99882.16
2023-05-15T23:05:25.192Z,99872.09
2023-05-15T23:10:26.823Z,99893.28
2023-05-15T23:15:28.420Z,99881.34
2023-05-15T23:20:30.171Z,99896.63
2023-05-15T23:25:31.745Z,99889.88
2023-05-15T23:30:33.597Z,99876.16
2023-05-15T23:35:34.954Z,99858.31
2023-05-15T23:40:36.644Z,99899.75
2023-05-15T23:45:37.931Z,99901.63
2023-05-15T23:50:39.240Z,99886.00
2023-05-15T23:55:40.569Z,99900.38
